Time;durP1;ratioP1;P1;durP2;ratioP2;P2;SDS_P1;SDS_P2;PMS_P1;PMS_P2;Temp;Humidity;BMP_temperature;BMP_pressure;BME280_temperature;BME280_humidity;BME280_pressure;Samples;Min_cycle;Max_cycle;Signal;HPM_P1;HPM_P2
2022/09/07 00:02:19;;;;;;;;;;;19.30;99.90;;;;;;5076014;28;19951;-73
2022/09/07 00:04:45;;;;;;;;;;;19.30;99.90;;;;;;5094490;28;19927;-73
2022/09/07 00:07:10;;;;;;;;;;;19.20;99.90;;;;;;5052996;28;20335;-72
2022/09/07 00:09:36;;;;;;;;;;;19.30;99.90;;;;;;5054339;28;19920;-73
2022/09/07 00:12:01;;;;;;;;;;;19.20;99.90;;;;;;5054364;28;20394;-73
2022/09/07 00:14:27;;;;;;;;;;;19.20;99.90;;;;;;5053022;28;19920;-73
2022/09/07 00:16:52;;;;;;;;;;;19.20;99.90;;;;;;5056413;28;19920;-73
2022/09/07 00:19:18;;;;;;;;;;;19.10;99.90;;;;;;5074330;28;19926;-73
2022/09/07 00:21:44;;;;;;;;;;;19.00;99.90;;;;;;5056158;28;19920;-73
2022/09/07 00:24:09;;;;;;;;;;;19.00;99.90;;;;;;5073099;28;19924;-73
2022/09/07 00:26:35;;;;;;;;;;;19.00;99.90;;;;;;5056470;28;19975;-73
2022/09/07 00:29:01;;;;;;;;;;;19.00;99.90;;;;;;5055253;28;20417;-73
2022/09/07 00:31:28;;;;;;;;;;;19.00;99.90;;;;;;5074116;28;19920;-72
2022/09/07 00:33:56;;;;;;;;;;;19.00;99.90;;;;;;5074732;28;19920;-73
2022/09/07 00:36:21;;;;;;;;;;;19.00;99.90;;;;;;5073476;28;20021;-72
2022/09/07 00:38:47;;;;;;;;;;;18.90;99.90;;;;;;5073911;28;19963;-72
2022/09/07 00:41:13;;;;;;;;;;;19.00;99.90;;;;;;5073297;28;19977;-72
2022/09/07 00:43:43;;;;;;;;;;;19.00;99.90;;;;;;5055813;28;20017;-73
2022/09/07 00:46:11;;;;;;;;;;;19.00;99.90;;;;;;5073583;28;20359;-72
2022/09/07 00:48:52;;;;;;;;;;;19.00;99.90;;;;;;5074727;28;20034;-72
2022/09/07 00:51:21;;;;;;;;;;;18.90;99.90;;;;;;5055609;28;19920;-72
2022/09/07 00:53:54;;;;;;;;;;;18.80;99.90;;;;;;5056096;28;19920;-72
2022/09/07 00:56:24;;;;;;;;;;;18.70;99.90;;;;;;5055480;28;19920;-71
2022/09/07 00:58:50;;;;;;;;;;;18.60;99.90;;;;;;5072865;28;19920;-72
2022/09/07 01:01:16;;;;;;;;;;;18.40;99.90;;;;;;5055927;28;19943;-72
2022/09/07 01:03:43;;;;;;;;;;;18.40;99.90;;;;;;5065757;28;19967;-72
2022/09/07 01:06:13;;;;;;;;;;;18.30;99.90;;;;;;5092457;28;19930;-72
2022/09/07 01:08:38;;;;;;;;;;;18.20;99.90;;;;;;5093800;28;20338;-72
2022/09/07 01:11:05;;;;;;;;;;;18.10;99.90;;;;;;5092509;28;20371;-73
2022/09/07 01:13:30;;;;;;;;;;;18.10;99.90;;;;;;5093462;28;19920;-72
2022/09/07 01:16:06;;;;;;;;;;;18.00;99.90;;;;;;5092983;28;19922;-73
2022/09/07 01:18:37;;;;;;;;;;;18.00;99.90;;;;;;5064415;28;19995;-72
2022/09/07 01:21:22;;;;;;;;;;;18.00;99.90;;;;;;5035233;28;19921;-72
2022/09/07 01:23:54;;;;;;;;;;;18.00;99.90;;;;;;5052879;28;20442;-72
2022/09/07 01:26:26;;;;;;;;;;;18.00;99.90;;;;;;5052728;28;20296;-72
2022/09/07 01:28:55;;;;;;;;;;;17.90;99.90;;;;;;5052955;28;19947;-71
2022/09/07 01:31:53;;;;;;;;;;;18.00;99.90;;;;;;5052033;28;19948;-72
2022/09/07 01:34:23;;;;;;;;;;;17.80;99.90;;;;;;5012027;28;19924;-72
2022/09/07 01:36:54;;;;;;;;;;;17.80;99.90;;;;;;5072164;28;20260;-72
2022/09/07 01:39:22;;;;;;;;;;;17.80;99.90;;;;;;5054564;28;19978;-72
2022/09/07 01:41:53;;;;;;;;;;;17.80;99.90;;;;;;5072091;28;20003;-71
2022/09/07 01:44:28;;;;;;;;;;;17.90;99.90;;;;;;5052980;28;19920;-71
2022/09/07 01:47:00;;;;;;;;;;;17.90;99.90;;;;;;5034329;28;19927;-72
2022/09/07 01:49:28;;;;;;;;;;;17.90;99.90;;;;;;5037879;28;19925;-71
2022/09/07 01:52:01;;;;;;;;;;;17.80;99.90;;;;;;5051271;28;19924;-71
2022/09/07 01:54:31;;;;;;;;;;;17.80;99.90;;;;;;5051506;28;20379;-71
2022/09/07 01:57:01;;;;;;;;;;;17.80;99.90;;;;;;5051369;28;20280;-71
2022/09/07 01:59:42;;;;;;;;;;;17.80;99.90;;;;;;5067608;28;19920;-71
2022/09/07 02:02:11;;;;;;;;;;;17.80;99.90;;;;;;5074145;28;19920;-71
2022/09/07 02:04:46;;;;;;;;;;;17.70;99.90;;;;;;5075058;28;20363;-71
2022/09/07 02:07:38;;;;;;;;;;;17.80;99.90;;;;;;5092535;28;19924;-71
2022/09/07 02:10:25;;;;;;;;;;;17.70;99.90;;;;;;5071405;28;19920;-71
2022/09/07 02:12:53;;;;;;;;;;;17.70;99.90;;;;;;5082910;28;19920;-71
2022/09/07 02:15:22;;;;;;;;;;;17.60;99.90;;;;;;5054369;28;19927;-71
2022/09/07 02:17:50;;;;;;;;;;;17.60;99.90;;;;;;5072545;28;20050;-71
2022/09/07 02:20:18;;;;;;;;;;;17.60;99.90;;;;;;5054546;28;20406;-71
2022/09/07 02:22:45;;;;;;;;;;;17.60;99.90;;;;;;5054068;28;19950;-71
2022/09/07 02:25:16;;;;;;;;;;;17.60;99.90;;;;;;5072380;28;19921;-72
2022/09/07 02:27:44;;;;;;;;;;;17.60;99.90;;;;;;5068106;28;20024;-71
2022/09/07 02:30:09;;;;;;;;;;;17.60;99.90;;;;;;5051869;28;20575;-72
2022/09/07 02:32:35;;;;;;;;;;;17.60;99.90;;;;;;5034715;28;19975;-72
2022/09/07 02:35:01;;;;;;;;;;;17.50;99.90;;;;;;5035258;28;19920;-72
2022/09/07 02:37:27;;;;;;;;;;;17.50;99.90;;;;;;5051745;28;19928;-72
2022/09/07 02:39:54;;;;;;;;;;;17.50;99.90;;;;;;5051862;28;20333;-72
2022/09/07 02:42:19;;;;;;;;;;;17.50;99.90;;;;;;5052467;28;19921;-71
2022/09/07 02:44:46;;;;;;;;;;;17.60;99.90;;;;;;5067343;28;20003;-71
2022/09/07 02:47:19;;;;;;;;;;;17.50;99.90;;;;;;5073815;28;19924;-71
2022/09/07 02:50:03;;;;;;;;;;;17.50;99.90;;;;;;5075734;28;19959;-71
2022/09/07 02:52:47;;;;;;;;;;;17.50;99.90;;;;;;5058010;28;19928;-71
2022/09/07 02:55:13;;;;;;;;;;;17.50;99.90;;;;;;5057452;28;19916;-71
2022/09/07 02:57:59;;;;;;;;;;;17.50;99.90;;;;;;5073828;28;19926;-72
2022/09/07 03:00:28;;;;;;;;;;;17.50;99.90;;;;;;5057969;28;19927;-72
2022/09/07 03:03:06;;;;;;;;;;;17.50;99.90;;;;;;5057481;28;19926;-71
2022/09/07 03:05:41;;;;;;;;;;;17.40;99.90;;;;;;5075468;28;19982;-72
2022/09/07 03:08:11;;;;;;;;;;;17.50;99.90;;;;;;5057230;28;19964;-72
2022/09/07 03:10:38;;;;;;;;;;;17.40;99.90;;;;;;5057799;28;19927;-72
2022/09/07 03:13:03;;;;;;;;;;;17.40;99.90;;;;;;5072892;28;19966;-71
2022/09/07 03:15:29;;;;;;;;;;;17.40;99.90;;;;;;5057479;28;20318;-72
2022/09/07 03:17:55;;;;;;;;;;;17.40;99.90;;;;;;5073816;28;20322;-72
2022/09/07 03:20:21;;;;;;;;;;;17.40;99.90;;;;;;5075636;28;20003;-72
2022/09/07 03:22:47;;;;;;;;;;;17.40;99.90;;;;;;5057390;28;19920;-72
2022/09/07 03:25:13;;;;;;;;;;;17.40;99.90;;;;;;5074640;28;19920;-72
2022/09/07 03:27:39;;;;;;;;;;;17.40;99.90;;;;;;5057185;28;20334;-72
2022/09/07 03:30:05;;;;;;;;;;;17.40;99.90;;;;;;5073205;28;20033;-71
2022/09/07 03:32:32;;;;;;;;;;;17.40;99.90;;;;;;5057130;28;20475;-72
2022/09/07 03:34:58;;;;;;;;;;;17.40;99.90;;;;;;5074645;28;20376;-72
2022/09/07 03:37:23;;;;;;;;;;;17.40;99.90;;;;;;5057298;28;19927;-72
2022/09/07 03:39:49;;;;;;;;;;;17.40;99.90;;;;;;5074558;28;19982;-72
2022/09/07 03:42:14;;;;;;;;;;;17.50;99.90;;;;;;5056941;28;19965;-72
2022/09/07 03:44:40;;;;;;;;;;;17.50;99.90;;;;;;5073004;28;20046;-72
2022/09/07 03:47:05;;;;;;;;;;;17.50;99.90;;;;;;5074233;28;19928;-72
2022/09/07 03:49:31;;;;;;;;;;;17.50;99.90;;;;;;5075161;28;19920;-72
2022/09/07 03:51:56;;;;;;;;;;;17.50;99.90;;;;;;5074446;28;19927;-71
2022/09/07 03:54:22;;;;;;;;;;;17.60;99.90;;;;;;5074345;28;19958;-72
2022/09/07 03:56:48;;;;;;;;;;;17.60;99.90;;;;;;5074718;28;19978;-72
2022/09/07 03:59:13;;;;;;;;;;;17.60;99.90;;;;;;5071138;28;19925;-72
2022/09/07 04:01:39;;;;;;;;;;;17.50;99.90;;;;;;5055796;28;19964;-72
2022/09/07 04:04:04;;;;;;;;;;;17.50;99.90;;;;;;5056448;28;19920;-72
2022/09/07 04:06:30;;;;;;;;;;;17.60;99.90;;;;;;5056319;28;19950;-72
2022/09/07 04:08:56;;;;;;;;;;;17.60;99.90;;;;;;5073847;28;19959;-72
2022/09/07 04:11:22;;;;;;;;;;;17.50;99.90;;;;;;5074273;28;19920;-72
2022/09/07 04:13:47;;;;;;;;;;;17.60;99.90;;;;;;5075861;28;19920;-72
2022/09/07 04:16:13;;;;;;;;;;;17.60;99.90;;;;;;5093609;28;19927;-72
2022/09/07 04:18:39;;;;;;;;;;;17.60;99.90;;;;;;5094273;28;20007;-72
2022/09/07 04:21:04;;;;;;;;;;;17.60;99.90;;;;;;5093597;28;20417;-72
2022/09/07 04:23:30;;;;;;;;;;;17.50;99.90;;;;;;5076474;28;19920;-73
2022/09/07 04:25:55;;;;;;;;;;;17.50;99.90;;;;;;5093970;28;19920;-77
2022/09/07 04:28:21;;;;;;;;;;;17.60;99.90;;;;;;5075838;28;19920;-77
2022/09/07 04:30:46;;;;;;;;;;;17.60;99.90;;;;;;5074652;28;19935;-75
2022/09/07 04:33:13;;;;;;;;;;;17.70;99.90;;;;;;5075613;28;19924;-72
2022/09/07 04:35:39;;;;;;;;;;;17.50;99.90;;;;;;5075762;28;19920;-71
2022/09/07 04:38:05;;;;;;;;;;;17.60;99.90;;;;;;5075514;28;20376;-71
2022/09/07 04:40:31;;;;;;;;;;;17.50;99.90;;;;;;5093644;28;20371;-80
2022/09/07 04:42:56;;;;;;;;;;;17.60;99.90;;;;;;5093412;28;19946;-77
2022/09/07 04:45:22;;;;;;;;;;;17.60;99.90;;;;;;5079184;28;19931;-77
2022/09/07 04:47:48;;;;;;;;;;;17.60;99.90;;;;;;5055746;28;19920;-76
2022/09/07 04:50:15;;;;;;;;;;;17.50;99.90;;;;;;5055444;28;19921;-73
2022/09/07 04:52:41;;;;;;;;;;;17.50;99.90;;;;;;5055780;28;19924;-77
2022/09/07 04:55:07;;;;;;;;;;;17.50;99.90;;;;;;5055524;28;19920;-75
2022/09/07 04:57:33;;;;;;;;;;;17.50;99.90;;;;;;5073023;28;20392;-74
2022/09/07 04:59:59;;;;;;;;;;;17.50;99.90;;;;;;5056340;28;19965;-74
2022/09/07 05:02:24;;;;;;;;;;;17.50;99.90;;;;;;5073354;28;19920;-71
2022/09/07 05:04:50;;;;;;;;;;;17.50;99.90;;;;;;5054988;28;19920;-73
2022/09/07 05:07:15;;;;;;;;;;;17.50;99.90;;;;;;5073673;28;19924;-74
2022/09/07 05:09:41;;;;;;;;;;;17.40;99.90;;;;;;5072867;28;20062;-67
2022/09/07 05:12:07;;;;;;;;;;;17.50;99.90;;;;;;5072269;28;19920;-70
2022/09/07 05:14:32;;;;;;;;;;;17.40;99.90;;;;;;5055009;28;19924;-65
2022/09/07 05:16:58;;;;;;;;;;;17.50;99.90;;;;;;5072573;28;19920;-66
2022/09/07 05:19:23;;;;;;;;;;;17.50;99.90;;;;;;5054734;28;19920;-66
2022/09/07 05:21:49;;;;;;;;;;;17.50;99.90;;;;;;5056366;28;20064;-67
2022/09/07 05:24:14;;;;;;;;;;;17.40;99.90;;;;;;5073080;28;20441;-64
2022/09/07 05:26:40;;;;;;;;;;;17.50;99.90;;;;;;5088650;28;20272;-66
2022/09/07 05:29:06;;;;;;;;;;;17.50;99.90;;;;;;5074744;28;19965;-66
2022/09/07 05:31:32;;;;;;;;;;;17.50;99.90;;;;;;5092788;28;19924;-64
2022/09/07 05:33:58;;;;;;;;;;;17.50;99.90;;;;;;5075050;28;20378;-65
2022/09/07 05:36:25;;;;;;;;;;;17.50;99.90;;;;;;5092129;28;20387;-65
2022/09/07 05:38:51;;;;;;;;;;;17.50;99.90;;;;;;5071986;28;19920;-65
2022/09/07 05:41:18;;;;;;;;;;;17.50;99.90;;;;;;5054792;28;19920;-67
2022/09/07 05:43:44;;;;;;;;;;;17.50;99.90;;;;;;5071960;28;19927;-66
2022/09/07 05:46:09;;;;;;;;;;;17.50;99.90;;;;;;5054346;28;19924;-66
2022/09/07 05:48:35;;;;;;;;;;;17.50;99.90;;;;;;5071997;28;20379;-67
2022/09/07 05:51:00;;;;;;;;;;;17.60;99.90;;;;;;5054368;28;20388;-66
2022/09/07 05:53:26;;;;;;;;;;;17.60;99.90;;;;;;5072906;28;19928;-67
2022/09/07 05:55:52;;;;;;;;;;;17.50;99.90;;;;;;5053747;28;19989;-65
2022/09/07 05:58:17;;;;;;;;;;;17.60;99.90;;;;;;5054085;28;20019;-66
2022/09/07 06:00:44;;;;;;;;;;;17.60;99.90;;;;;;5072166;28;19927;-65
2022/09/07 06:03:09;;;;;;;;;;;17.60;99.90;;;;;;5054544;28;19924;-67
2022/09/07 06:05:35;;;;;;;;;;;17.60;99.90;;;;;;5072520;28;19927;-66
2022/09/07 06:08:00;;;;;;;;;;;17.60;99.90;;;;;;5071979;28;19920;-67
2022/09/07 06:10:26;;;;;;;;;;;17.70;99.90;;;;;;5054900;28;19924;-66
2022/09/07 06:12:52;;;;;;;;;;;17.70;99.90;;;;;;5054610;28;19924;-66
2022/09/07 06:15:18;;;;;;;;;;;17.70;99.90;;;;;;5072257;28;20283;-66
2022/09/07 06:17:43;;;;;;;;;;;17.80;99.90;;;;;;5054096;28;19920;-75
2022/09/07 06:20:09;;;;;;;;;;;17.90;99.90;;;;;;5072271;28;20251;-74
2022/09/07 06:22:37;;;;;;;;;;;17.90;99.90;;;;;;5074985;28;19920;-74
2022/09/07 06:25:03;;;;;;;;;;;17.90;99.90;;;;;;5057375;28;19943;-73
2022/09/07 06:27:29;;;;;;;;;;;17.90;99.90;;;;;;5058310;28;19986;-72
2022/09/07 06:29:55;;;;;;;;;;;18.00;99.90;;;;;;5075782;28;20367;-72
2022/09/07 06:32:20;;;;;;;;;;;18.00;99.90;;;;;;5076432;28;20314;-72
2022/09/07 06:34:46;;;;;;;;;;;18.00;99.90;;;;;;5076063;28;19920;-73
2022/09/07 06:37:12;;;;;;;;;;;18.10;99.90;;;;;;5081960;28;20390;-73
2022/09/07 06:39:37;;;;;;;;;;;18.10;99.90;;;;;;5096173;28;19928;-73
2022/09/07 06:42:03;;;;;;;;;;;18.20;99.90;;;;;;5095733;28;20010;-73
2022/09/07 06:44:29;;;;;;;;;;;18.10;99.90;;;;;;5096508;28;19927;-75
2022/09/07 06:46:55;;;;;;;;;;;18.10;99.90;;;;;;5095882;28;19920;-74
2022/09/07 06:49:20;;;;;;;;;;;18.20;99.90;;;;;;5095741;28;19931;-75
2022/09/07 06:51:46;;;;;;;;;;;18.40;99.90;;;;;;5077643;28;19935;-76
2022/09/07 06:54:11;;;;;;;;;;;18.50;99.90;;;;;;5094164;28;19946;-76
2022/09/07 06:56:36;;;;;;;;;;;18.60;99.90;;;;;;5077227;28;19920;-76
2022/09/07 06:59:02;;;;;;;;;;;18.60;99.90;;;;;;5095989;28;19928;-76
2022/09/07 07:01:32;;;;;;;;;;;18.60;99.90;;;;;;5096043;28;20367;-76
2022/09/07 07:03:58;;;;;;;;;;;18.50;99.90;;;;;;5077134;28;20008;-75
2022/09/07 07:06:31;;;;;;;;;;;18.50;99.90;;;;;;5096177;28;20003;-75
2022/09/07 07:08:56;;;;;;;;;;;18.60;99.90;;;;;;5037827;28;19921;-75
2022/09/07 07:11:22;;;;;;;;;;;18.70;99.90;;;;;;5037729;28;20434;-72
2022/09/07 07:13:47;;;;;;;;;;;18.60;99.90;;;;;;5037949;28;19920;-71
2022/09/07 07:16:14;;;;;;;;;;;18.60;99.90;;;;;;5037857;28;19921;-67
2022/09/07 07:18:40;;;;;;;;;;;18.60;99.90;;;;;;5038879;28;19921;-66
2022/09/07 07:21:07;;;;;;;;;;;18.60;99.90;;;;;;5035181;28;19960;-67
2022/09/07 07:23:33;;;;;;;;;;;18.60;99.90;;;;;;5039781;28;20272;-69
2022/09/07 07:26:18;;;;;;;;;;;18.70;99.90;;;;;;5025487;28;19966;-69
2022/09/07 07:28:46;;;;;;;;;;;18.80;99.90;;;;;;5017460;28;19921;-70
2022/09/07 07:31:12;;;;;;;;;;;18.80;99.90;;;;;;5015891;28;19919;-71
2022/09/07 07:36:23;;;;;;;;;;;19.90;99.90;;;;;;5017302;28;19921;-71
2022/09/07 07:38:50;;;;;;;;;;;20.60;99.90;;;;;;5053226;28;19921;-70
2022/09/07 07:41:16;;;;;;;;;;;20.90;99.90;;;;;;5055128;28;20416;-71
2022/09/07 07:43:42;;;;;;;;;;;21.10;99.90;;;;;;5053850;28;19974;-71
2022/09/07 07:46:11;;;;;;;;;;;21.40;99.90;;;;;;5035010;28;20015;-71
2022/09/07 07:48:36;;;;;;;;;;;21.80;99.90;;;;;;5053722;28;19943;-71
2022/09/07 07:51:06;;;;;;;;;;;22.30;99.90;;;;;;5054252;28;20269;-71
2022/09/07 07:53:33;;;;;;;;;;;22.80;99.90;;;;;;5034421;28;20007;-71
2022/09/07 07:55:59;;;;;;;;;;;22.50;99.90;;;;;;5036172;28;19920;-69
2022/09/07 07:58:28;;;;;;;;;;;22.10;99.90;;;;;;5054391;28;19995;-69
2022/09/07 08:00:54;;;;;;;;;;;21.70;99.90;;;;;;5053547;28;19968;-69
2022/09/07 08:03:20;;;;;;;;;;;21.10;99.90;;;;;;5036742;28;19995;-69
2022/09/07 08:05:45;;;;;;;;;;;20.80;99.90;;;;;;5054797;28;19920;-69
2022/09/07 08:08:11;;;;;;;;;;;20.70;99.90;;;;;;5022463;28;20011;-69
2022/09/07 08:10:36;;;;;;;;;;;20.50;99.90;;;;;;5034682;28;20375;-69
2022/09/07 08:13:02;;;;;;;;;;;20.40;99.90;;;;;;5016723;28;20352;-70
2022/09/07 08:15:31;;;;;;;;;;;20.40;99.90;;;;;;5034315;28;20392;-70
2022/09/07 08:17:56;;;;;;;;;;;20.50;99.90;;;;;;5043951;28;19921;-71
2022/09/07 08:20:22;;;;;;;;;;;21.10;99.90;;;;;;5035983;28;19920;-71
2022/09/07 08:22:50;;;;;;;;;;;22.10;99.90;;;;;;5063680;28;20327;-71
2022/09/07 08:25:16;;;;;;;;;;;22.70;99.90;;;;;;5053859;28;19999;-72
2022/09/07 08:27:42;;;;;;;;;;;23.20;99.90;;;;;;5055486;28;20016;-72
2022/09/07 08:30:08;;;;;;;;;;;23.70;99.90;;;;;;5055973;28;19951;-72
2022/09/07 08:32:33;;;;;;;;;;;23.60;99.90;;;;;;5055978;28;19920;-71
2022/09/07 08:34:59;;;;;;;;;;;23.50;99.90;;;;;;5075082;28;20336;-71
2022/09/07 08:37:24;;;;;;;;;;;23.30;99.90;;;;;;5076252;28;19942;-72
2022/09/07 08:39:50;;;;;;;;;;;23.40;99.90;;;;;;5075427;28;19920;-72
2022/09/07 08:42:21;;;;;;;;;;;23.80;99.90;;;;;;5093772;28;19943;-72
2022/09/07 08:44:49;;;;;;;;;;;24.70;99.90;;;;;;5070623;28;19920;-71
2022/09/07 08:47:18;;;;;;;;;;;25.00;99.90;;;;;;5074028;28;19975;-72
2022/09/07 08:49:52;;;;;;;;;;;25.40;99.90;;;;;;5055459;28;19946;-72
2022/09/07 08:52:23;;;;;;;;;;;26.20;99.90;;;;;;5053372;28;19920;-71
2022/09/07 08:55:09;;;;;;;;;;;26.80;99.20;;;;;;5055705;28;19935;-72
2022/09/07 08:57:37;;;;;;;;;;;27.40;97.10;;;;;;5072461;28;19928;-72
2022/09/07 09:00:04;;;;;;;;;;;28.00;97.60;;;;;;5055186;28;19931;-72
2022/09/07 09:02:30;;;;;;;;;;;28.40;95.50;;;;;;5072927;28;20371;-70
2022/09/07 09:04:55;;;;;;;;;;;29.10;94.00;;;;;;5055430;28;20003;-70
2022/09/07 09:07:21;;;;;;;;;;;29.00;93.70;;;;;;5056556;28;19924;-71
2022/09/07 09:09:58;;;;;;;;;;;28.50;95.20;;;;;;5072060;28;19920;-71
2022/09/07 09:12:35;;;;;;;;;;;28.10;95.10;;;;;;5056768;28;20253;-70
2022/09/07 09:15:08;;;;;;;;;;;28.50;94.40;;;;;;5072898;28;20073;-71
2022/09/07 09:17:33;;;;;;;;;;;28.30;94.30;;;;;;5054552;28;19995;-70
2022/09/07 09:20:06;;;;;;;;;;;28.10;93.50;;;;;;5054609;28;20013;-71
2022/09/07 09:22:33;;;;;;;;;;;27.80;93.70;;;;;;5073325;28;19921;-70
2022/09/07 09:25:17;;;;;;;;;;;27.40;95.00;;;;;;5054776;28;19982;-71
2022/09/07 09:27:42;;;;;;;;;;;27.80;94.50;;;;;;5055228;28;20363;-72
2022/09/07 09:30:13;;;;;;;;;;;28.30;94.10;;;;;;5072632;28;19974;-72
2022/09/07 09:32:40;;;;;;;;;;;29.10;92.30;;;;;;5054458;28;19921;-70
2022/09/07 09:35:06;;;;;;;;;;;29.90;92.70;;;;;;5054709;28;19931;-70
2022/09/07 09:37:32;;;;;;;;;;;29.70;91.10;;;;;;5072656;28;20368;-71
2022/09/07 09:39:58;;;;;;;;;;;30.20;91.90;;;;;;5072819;28;19974;-69
2022/09/07 09:42:24;;;;;;;;;;;30.80;91.60;;;;;;5087203;28;19924;-69
2022/09/07 09:44:50;;;;;;;;;;;30.60;90.40;;;;;;5074551;28;19982;-69
2022/09/07 09:47:30;;;;;;;;;;;31.10;90.90;;;;;;5093138;28;20371;-71
2022/09/07 09:49:58;;;;;;;;;;;31.50;90.00;;;;;;5092719;28;19924;-71
2022/09/07 09:52:24;;;;;;;;;;;32.30;89.60;;;;;;5092920;28;20290;-71
2022/09/07 09:54:51;;;;;;;;;;;32.40;88.50;;;;;;5075071;28;20395;-72
2022/09/07 09:57:37;;;;;;;;;;;32.70;85.80;;;;;;5072172;28;19974;-72
2022/09/07 10:00:03;;;;;;;;;;;33.30;88.30;;;;;;5073925;28;20011;-72
2022/09/07 10:02:30;;;;;;;;;;;33.00;86.40;;;;;;5075092;28;19920;-74
2022/09/07 10:04:56;;;;;;;;;;;33.10;84.00;;;;;;5074870;28;19920;-74
2022/09/07 10:07:25;;;;;;;;;;;34.00;83.20;;;;;;5074311;28;20018;-70
2022/09/07 10:09:52;;;;;;;;;;;33.90;81.70;;;;;;5092232;28;19920;-72
2022/09/07 10:12:27;;;;;;;;;;;34.20;82.00;;;;;;5078998;28;19927;-72
2022/09/07 10:14:57;;;;;;;;;;;34.30;79.50;;;;;;5054335;28;19924;-73
2022/09/07 10:17:37;;;;;;;;;;;33.60;80.60;;;;;;5055941;28;19928;-73
2022/09/07 10:20:11;;;;;;;;;;;34.00;83.00;;;;;;5075116;28;20041;-70
2022/09/07 10:22:37;;;;;;;;;;;34.60;82.40;;;;;;5042752;28;20512;-69
2022/09/07 10:25:23;;;;;;;;;;;34.40;81.60;;;;;;5051801;28;19924;-72
2022/09/07 10:27:59;;;;;;;;;;;34.20;80.00;;;;;;5072608;28;19927;-72
2022/09/07 10:30:25;;;;;;;;;;;34.00;81.40;;;;;;5052116;28;19927;-73
2022/09/07 10:33:05;;;;;;;;;;;34.20;81.20;;;;;;5072014;28;19920;-74
2022/09/07 10:35:39;;;;;;;;;;;34.50;81.50;;;;;;5054416;28;19921;-74
2022/09/07 10:38:18;;;;;;;;;;;34.60;79.30;;;;;;5054334;28;19920;-70
2022/09/07 10:40:50;;;;;;;;;;;34.40;79.40;;;;;;5072276;28;19928;-72
2022/09/07 10:43:34;;;;;;;;;;;34.20;81.30;;;;;;5083135;28;19920;-71
2022/09/07 10:46:18;;;;;;;;;;;34.50;77.80;;;;;;5092133;28;19965;-72
2022/09/07 10:48:57;;;;;;;;;;;34.50;79.30;;;;;;5072198;28;19920;-73
2022/09/07 10:51:37;;;;;;;;;;;34.90;78.30;;;;;;5073896;28;20424;-74
2022/09/07 10:54:21;;;;;;;;;;;34.20;78.70;;;;;;5074379;28;19924;-74
2022/09/07 10:56:53;;;;;;;;;;;33.70;77.50;;;;;;5086214;28;19966;-71
2022/09/07 10:59:30;;;;;;;;;;;33.00;79.20;;;;;;5070475;28;19920;-73
2022/09/07 11:02:14;;;;;;;;;;;32.20;77.70;;;;;;5053848;28;19943;-74
2022/09/07 11:04:58;;;;;;;;;;;31.60;79.20;;;;;;5054517;28;19920;-75
2022/09/07 11:07:41;;;;;;;;;;;31.90;80.20;;;;;;5053431;28;19931;-73
2022/09/07 11:10:13;;;;;;;;;;;31.40;81.10;;;;;;5054396;28;19956;-74
2022/09/07 11:12:40;;;;;;;;;;;31.70;80.10;;;;;;5039137;28;19928;-72
2022/09/07 11:15:12;;;;;;;;;;;30.80;81.30;;;;;;5073004;28;19920;-74
2022/09/07 11:17:40;;;;;;;;;;;30.10;84.90;;;;;;5056783;28;19920;-73
2022/09/07 11:20:16;;;;;;;;;;;30.80;84.20;;;;;;5056238;28;20418;-77
2022/09/07 11:22:45;;;;;;;;;;;30.80;84.60;;;;;;5056909;28;19974;-75
2022/09/07 11:25:17;;;;;;;;;;;31.10;83.30;;;;;;5057149;28;19967;-75
2022/09/07 11:27:51;;;;;;;;;;;30.80;82.70;;;;;;5076419;28;19963;-72
2022/09/07 11:30:26;;;;;;;;;;;30.20;84.40;;;;;;5074569;28;19921;-71
2022/09/07 11:33:03;;;;;;;;;;;30.30;84.10;;;;;;5075195;28;19920;-70
2022/09/07 11:35:29;;;;;;;;;;;30.50;84.10;;;;;;5049851;28;19931;-69
2022/09/07 11:37:58;;;;;;;;;;;30.70;83.70;;;;;;5062949;28;19920;-71
2022/09/07 11:40:29;;;;;;;;;;;31.40;83.80;;;;;;5070559;28;19924;-72
2022/09/07 11:42:58;;;;;;;;;;;31.20;82.30;;;;;;5056831;28;20406;-69
2022/09/07 11:45:44;;;;;;;;;;;30.70;82.20;;;;;;5055411;28;19920;-70
2022/09/07 11:48:25;;;;;;;;;;;30.70;82.30;;;;;;5056229;28;20014;-73
2022/09/07 11:50:53;;;;;;;;;;;30.20;84.00;;;;;;5056591;28;19973;-71
2022/09/07 11:53:21;;;;;;;;;;;30.80;84.30;;;;;;5059196;28;19928;-71
2022/09/07 11:55:49;;;;;;;;;;;30.70;83.60;;;;;;5094894;28;19923;-72
2022/09/07 11:58:22;;;;;;;;;;;30.40;85.50;;;;;;5076435;28;19920;-73
2022/09/07 12:00:54;;;;;;;;;;;31.00;84.50;;;;;;5094991;28;19920;-73
2022/09/07 12:03:27;;;;;;;;;;;31.50;85.70;;;;;;5094763;28;20283;-71
2022/09/07 12:05:59;;;;;;;;;;;32.00;82.60;;;;;;5075894;28;20371;-70
2022/09/07 12:08:31;;;;;;;;;;;32.40;81.10;;;;;;5086764;28;20406;-72
2022/09/07 12:11:23;;;;;;;;;;;31.70;83.90;;;;;;5056577;28;20027;-72
2022/09/07 12:13:55;;;;;;;;;;;31.90;82.10;;;;;;5056143;28;20364;-72
2022/09/07 12:16:34;;;;;;;;;;;32.30;81.80;;;;;;5073036;28;20314;-70
2022/09/07 12:19:13;;;;;;;;;;;32.50;80.30;;;;;;5053624;28;19921;-71
2022/09/07 12:21:51;;;;;;;;;;;32.70;80.30;;;;;;5052819;28;19921;-73
2022/09/07 12:24:36;;;;;;;;;;;33.00;79.50;;;;;;5049759;28;19921;-77
2022/09/07 12:27:02;;;;;;;;;;;33.40;80.00;;;;;;5069808;28;19920;-78
2022/09/07 12:29:29;;;;;;;;;;;33.50;81.10;;;;;;5059087;28;19927;-76
2022/09/07 12:31:55;;;;;;;;;;;33.40;79.40;;;;;;5072708;28;19920;-76
2022/09/07 12:34:30;;;;;;;;;;;32.10;79.80;;;;;;5069865;28;19924;-77
2022/09/07 12:36:56;;;;;;;;;;;30.80;81.60;;;;;;5055273;28;20021;-76
2022/09/07 12:39:27;;;;;;;;;;;30.00;83.20;;;;;;5073369;28;19943;-75
2022/09/07 12:42:04;;;;;;;;;;;29.80;86.20;;;;;;5058320;28;19929;-77
2022/09/07 12:44:31;;;;;;;;;;;30.60;84.80;;;;;;5049701;28;20284;-75
2022/09/07 12:46:58;;;;;;;;;;;31.40;83.70;;;;;;5072578;28;19963;-75
2022/09/07 12:49:48;;;;;;;;;;;31.90;82.60;;;;;;5054836;28;19924;-75
2022/09/07 12:52:21;;;;;;;;;;;31.50;80.40;;;;;;5052906;28;19920;-77
2022/09/07 12:54:50;;;;;;;;;;;31.10;81.60;;;;;;5048240;28;19920;-76
2022/09/07 12:57:27;;;;;;;;;;;31.20;82.00;;;;;;5051680;28;19927;-75
2022/09/07 13:00:01;;;;;;;;;;;31.00;83.00;;;;;;5055099;28;19977;-78
2022/09/07 13:02:36;;;;;;;;;;;30.40;83.80;;;;;;5073198;28;20003;-78
2022/09/07 13:05:18;;;;;;;;;;;30.10;83.50;;;;;;5055181;28;20011;-79
2022/09/07 13:08:02;;;;;;;;;;;29.70;83.40;;;;;;5056258;28;19931;-78
2022/09/07 13:10:29;;;;;;;;;;;28.80;85.90;;;;;;5075360;28;20016;-76
2022/09/07 13:13:02;;;;;;;;;;;28.30;87.00;;;;;;5088014;28;20130;-76
2022/09/07 13:15:39;;;;;;;;;;;28.10;86.60;;;;;;5051602;28;19928;-77
2022/09/07 13:18:05;;;;;;;;;;;28.00;89.20;;;;;;5067488;28;19935;-78
2022/09/07 13:20:31;;;;;;;;;;;28.00;89.90;;;;;;5051460;28;19921;-75
2022/09/07 13:23:07;;;;;;;;;;;28.20;89.10;;;;;;5049725;28;19924;-72
2022/09/07 13:25:35;;;;;;;;;;;28.50;87.10;;;;;;5065259;28;19943;-76
2022/09/07 13:28:12;;;;;;;;;;;28.70;87.00;;;;;;5065356;28;19925;-77
2022/09/07 13:30:38;;;;;;;;;;;28.40;85.80;;;;;;5049113;28;19920;-74
2022/09/07 13:33:22;;;;;;;;;;;28.40;87.40;;;;;;5054430;28;20061;-79
2022/09/07 13:35:48;;;;;;;;;;;28.30;87.20;;;;;;5070800;28;19973;-81
2022/09/07 13:38:14;;;;;;;;;;;28.10;87.50;;;;;;5050929;28;19920;-84
2022/09/07 13:40:44;;;;;;;;;;;27.80;88.10;;;;;;5052044;28;19928;-78
2022/09/07 13:43:15;;;;;;;;;;;27.70;87.30;;;;;;5064926;28;19998;-80
2022/09/07 13:45:48;;;;;;;;;;;27.70;87.20;;;;;;5054242;28;19966;-79
2022/09/07 13:48:14;;;;;;;;;;;27.90;86.70;;;;;;5069124;28;19969;-85
2022/09/07 13:50:51;;;;;;;;;;;27.60;89.70;;;;;;5050951;28;20011;-77
2022/09/07 13:53:33;;;;;;;;;;;27.80;86.80;;;;;;5052919;28;19969;-77
2022/09/07 13:56:02;;;;;;;;;;;27.70;87.10;;;;;;5052578;28;19959;-78
2022/09/07 13:58:28;;;;;;;;;;;27.50;87.40;;;;;;5068649;28;20014;-78
2022/09/07 14:00:57;;;;;;;;;;;27.20;87.60;;;;;;5049162;28;20024;-77
2022/09/07 14:03:24;;;;;;;;;;;26.90;88.50;;;;;;5052803;28;20376;-77
2022/09/07 14:06:12;;;;;;;;;;;26.90;88.80;;;;;;5052294;28;19928;-77
2022/09/07 14:08:45;;;;;;;;;;;26.90;89.00;;;;;;5048877;28;19920;-79
2022/09/07 14:11:17;;;;;;;;;;;26.90;89.70;;;;;;5069494;28;19920;-76
2022/09/07 14:13:42;;;;;;;;;;;27.10;88.30;;;;;;5046488;28;19928;-77
2022/09/07 14:16:11;;;;;;;;;;;27.00;89.80;;;;;;5064616;28;19920;-75
2022/09/07 14:18:39;;;;;;;;;;;27.00;89.90;;;;;;5064351;28;19973;-77
2022/09/07 14:21:08;;;;;;;;;;;26.70;88.90;;;;;;5050646;28;19927;-77
2022/09/07 14:23:35;;;;;;;;;;;26.50;88.50;;;;;;5069984;28;19932;-77
2022/09/07 14:26:14;;;;;;;;;;;26.40;88.60;;;;;;5069760;28;19921;-77
2022/09/07 14:28:40;;;;;;;;;;;26.20;89.20;;;;;;5065447;28;19924;-77
2022/09/07 14:31:10;;;;;;;;;;;26.00;89.80;;;;;;5070262;28;19928;-78
2022/09/07 14:33:35;;;;;;;;;;;26.10;90.00;;;;;;5070154;28;19920;-76